Puyallup, WA

7:51 AM PST on February 14, 2016 (GMT -0800)
Pierce County - Thun Field | | Change Station
CLOSE
Current Station
Airport
Location: Puyallup,
Elevation: 538 ft
Nearby Weather Stations

Elev 538 ft 47.10 °N, 122.29 °W | Updated 16 minutes ago

Light Drizzle
Light Drizzle
48 °F
Feels Like 48 °F
N
0
Wind Variable Wind from North

Today
High -- | Low -- °F
--% Chance of Precip.
Yesterday
High -- | Low -- °F
Precip. -- in
Pressure 30.14 in
Visibility 2.0 miles
Clouds Mostly Cloudy 2800 ft
Overcast 3300 ft
Dew Point 48 °F
Humidity 100%
Rainfall 0.00 in
Snow Depth Not available.
7:16 AM 5:31 PM
Waxing Crescent, 43% visible
METAR KPLU 141535Z AUTO 00000KT 2SM -DZ BKN028 OVC033 09/09 A3014 RMK AO2
Pressure 30.14 in
Visibility 2.0 miles
Clouds Mostly Cloudy 2800 ft
Overcast 3300 ft
Dew Point 48 °F
Humidity 100%
Rainfall 0.00 in
Snow Depth Not available.
7:16 AM 5:31 PM
Waxing Crescent, 43% visible
METAR KPLU 141535Z AUTO 00000KT 2SM -DZ BKN028 OVC033 09/09 A3014 RMK AO2

10-Day Weather Forecast

Almanac

Astronomy

Feb. 14, 2016 Rise Set
Actual Time
Civil Twilight
Nautical Twilight
Astronomical Twilight
Moon
Length of Visible Light
Length of Day
Tomorrow will be .
, % of the Moon is Illuminated

Today's Extremes

State Highs State Lows

Community

WunderPhotos

Upload Photos

1,892,802 photos uploaded!

WunderBlog® & News

Nearby

Air Quality

  Air Quality AQ Index Pollutant
Not available.

Snow Depth

Station Depth Elevation

Earthquake Activity

City Distance Mag. Time & Date
Minimum magnitude displayed is 2.5.

Coastal Water Temperatures

Place Temperature

Stations

Nearby Weather Stations

Station Location Temp. Windchill Dew Point Humidity Wind Precip. Elev Updated Type
                   

Watches & Warnings

There are currently no watches in effect.